sensor_id;sensor_type;location;lat;lon;timestamp;pressure;altitude;pressure_sealevel;temperature;humidity
4745;BME280;2386;42.138;24.746;2022-12-11T00:01:15;97720.16;;;11.67;100.00
4745;BME280;2386;42.138;24.746;2022-12-11T00:03:40;97710.44;;;11.61;100.00
4745;BME280;2386;42.138;24.746;2022-12-11T00:06:08;97718.53;;;11.66;100.00
4745;BME280;2386;42.138;24.746;2022-12-11T00:08:34;97681.00;;;11.05;100.00
4745;BME280;2386;42.138;24.746;2022-12-11T00:11:00;97677.31;;;11.25;100.00
4745;BME280;2386;42.138;24.746;2022-12-11T00:13:25;97646.34;;;11.31;100.00
4745;BME280;2386;42.138;24.746;2022-12-11T00:15:50;97635.97;;;11.38;100.00
4745;BME280;2386;42.138;24.746;2022-12-11T00:18:16;97631.06;;;11.40;100.00
4745;BME280;2386;42.138;24.746;2022-12-11T00:20:41;97619.63;;;11.43;100.00
4745;BME280;2386;42.138;24.746;2022-12-11T00:23:07;97611.53;;;11.38;100.00
4745;BME280;2386;42.138;24.746;2022-12-11T00:25:32;97637.50;;;11.49;100.00
4745;BME280;2386;42.138;24.746;2022-12-11T00:27:57;97602.44;;;11.24;100.00
4745;BME280;2386;42.138;24.746;2022-12-11T00:30:23;97635.97;;;11.38;100.00
4745;BME280;2386;42.138;24.746;2022-12-11T00:32:50;97631.69;;;10.98;100.00
4745;BME280;2386;42.138;24.746;2022-12-11T00:35:16;97647.53;;;11.14;100.00
4745;BME280;2386;42.138;24.746;2022-12-11T00:37:41;97617.09;;;11.23;100.00
4745;BME280;2386;42.138;24.746;2022-12-11T00:40:08;97624.56;;;11.07;100.00
4745;BME280;2386;42.138;24.746;2022-12-11T00:42:34;97650.03;;;11.11;100.00
4745;BME280;2386;42.138;24.746;2022-12-11T00:44:59;97643.00;;;11.10;100.00
4745;BME280;2386;42.138;24.746;2022-12-11T00:47:25;97651.28;;;11.24;100.00
4745;BME280;2386;42.138;24.746;2022-12-11T00:49:50;97655.56;;;11.30;100.00
4745;BME280;2386;42.138;24.746;2022-12-11T00:52:16;97628.88;;;11.42;100.00
4745;BME280;2386;42.138;24.746;2022-12-11T00:54:41;97646.72;;;11.48;100.00
4745;BME280;2386;42.138;24.746;2022-12-11T00:57:07;97640.78;;;11.46;100.00
4745;BME280;2386;42.138;24.746;2022-12-11T00:59:32;97621.72;;;11.51;100.00
4745;BME280;2386;42.138;24.746;2022-12-11T01:01:58;97608.72;;;11.48;100.00
4745;BME280;2386;42.138;24.746;2022-12-11T01:04:23;97617.63;;;11.53;100.00
4745;BME280;2386;42.138;24.746;2022-12-11T01:06:48;97575.53;;;11.56;100.00
4745;BME280;2386;42.138;24.746;2022-12-11T01:09:14;97575.47;;;11.61;100.00
4745;BME280;2386;42.138;24.746;2022-12-11T01:11:57;97552.38;;;11.64;100.00
4745;BME280;2386;42.138;24.746;2022-12-11T01:14:23;97541.78;;;11.62;100.00
4745;BME280;2386;42.138;24.746;2022-12-11T01:16:48;97573.81;;;11.65;100.00
4745;BME280;2386;42.138;24.746;2022-12-11T01:19:14;97584.84;;;11.74;100.00
4745;BME280;2386;42.138;24.746;2022-12-11T01:21:39;97581.59;;;11.72;100.00
4745;BME280;2386;42.138;24.746;2022-12-11T01:24:05;97591.53;;;11.58;100.00
4745;BME280;2386;42.138;24.746;2022-12-11T01:26:30;97579.19;;;11.70;100.00
4745;BME280;2386;42.138;24.746;2022-12-11T01:28:56;97561.72;;;11.76;100.00
4745;BME280;2386;42.138;24.746;2022-12-11T01:31:21;97561.69;;;11.81;100.00
4745;BME280;2386;42.138;24.746;2022-12-11T01:33:47;97568.38;;;11.89;100.00
4745;BME280;2386;42.138;24.746;2022-12-11T01:36:18;97564.84;;;11.65;100.00
4745;BME280;2386;42.138;24.746;2022-12-11T01:38:45;97563.75;;;11.66;100.00
4745;BME280;2386;42.138;24.746;2022-12-11T01:41:11;97552.06;;;11.65;100.00
4745;BME280;2386;42.138;24.746;2022-12-11T01:46:20;97524.03;;;11.46;100.00
4745;BME280;2386;42.138;24.746;2022-12-11T01:48:46;97483.91;;;11.43;100.00
4745;BME280;2386;42.138;24.746;2022-12-11T01:51:12;97443.22;;;11.62;100.00
4745;BME280;2386;42.138;24.746;2022-12-11T01:53:42;97427.59;;;11.53;100.00
4745;BME280;2386;42.138;24.746;2022-12-11T01:56:09;97427.41;;;11.45;100.00
4745;BME280;2386;42.138;24.746;2022-12-11T01:58:47;97455.09;;;11.47;100.00
4745;BME280;2386;42.138;24.746;2022-12-11T02:01:31;97429.50;;;11.53;100.00
4745;BME280;2386;42.138;24.746;2022-12-11T02:03:57;97443.03;;;11.10;100.00
4745;BME280;2386;42.138;24.746;2022-12-11T02:06:33;97434.34;;;11.32;100.00
4745;BME280;2386;42.138;24.746;2022-12-11T02:08:59;97492.69;;;11.11;100.00
4745;BME280;2386;42.138;24.746;2022-12-11T02:11:34;97432.31;;;11.19;100.00
4745;BME280;2386;42.138;24.746;2022-12-11T02:14:04;97438.38;;;11.35;100.00
4745;BME280;2386;42.138;24.746;2022-12-11T02:16:40;97459.06;;;11.31;100.00
4745;BME280;2386;42.138;24.746;2022-12-11T02:22:03;97439.38;;;11.20;100.00
4745;BME280;2386;42.138;24.746;2022-12-11T02:30:00;97437.63;;;11.53;100.00
4745;BME280;2386;42.138;24.746;2022-12-11T02:32:53;97445.72;;;11.58;100.00
4745;BME280;2386;42.138;24.746;2022-12-11T02:35:30;97446.53;;;11.59;100.00
4745;BME280;2386;42.138;24.746;2022-12-11T02:38:01;97454.38;;;11.60;100.00
4745;BME280;2386;42.138;24.746;2022-12-11T02:40:30;97432.06;;;11.63;100.00
4745;BME280;2386;42.138;24.746;2022-12-11T02:43:00;97425.69;;;11.73;100.00
4745;BME280;2386;42.138;24.746;2022-12-11T02:45:27;97398.97;;;11.61;100.00
4745;BME280;2386;42.138;24.746;2022-12-11T02:47:55;97424.09;;;11.72;100.00
4745;BME280;2386;42.138;24.746;2022-12-11T02:50:22;97425.09;;;11.81;100.00
4745;BME280;2386;42.138;24.746;2022-12-11T02:52:50;97418.84;;;11.80;100.00
4745;BME280;2386;42.138;24.746;2022-12-11T02:55:18;97406.50;;;11.88;100.00
4745;BME280;2386;42.138;24.746;2022-12-11T02:57:48;97415.94;;;11.91;100.00
4745;BME280;2386;42.138;24.746;2022-12-11T03:00:15;97408.91;;;11.90;100.00
4745;BME280;2386;42.138;24.746;2022-12-11T03:02:41;97412.94;;;11.92;100.00
4745;BME280;2386;42.138;24.746;2022-12-11T03:05:09;97425.44;;;11.93;100.00
4745;BME280;2386;42.138;24.746;2022-12-11T03:07:38;97443.22;;;11.86;100.00
4745;BME280;2386;42.138;24.746;2022-12-11T03:10:06;97427.25;;;11.98;100.00
4745;BME280;2386;42.138;24.746;2022-12-11T03:12:37;97409.88;;;11.99;100.00
4745;BME280;2386;42.138;24.746;2022-12-11T03:15:08;97413.22;;;12.09;100.00
4745;BME280;2386;42.138;24.746;2022-12-11T03:20:41;97439.09;;;12.07;100.00
4745;BME280;2386;42.138;24.746;2022-12-11T03:25:54;97441.16;;;12.15;100.00
4745;BME280;2386;42.138;24.746;2022-12-11T03:28:26;97449.44;;;12.24;100.00
4745;BME280;2386;42.138;24.746;2022-12-11T03:30:55;97461.50;;;12.36;100.00
4745;BME280;2386;42.138;24.746;2022-12-11T03:33:25;97441.88;;;12.39;100.00
4745;BME280;2386;42.138;24.746;2022-12-11T03:36:02;97451.63;;;12.40;100.00
4745;BME280;2386;42.138;24.746;2022-12-11T03:41:05;97445.31;;;12.26;100.00
4745;BME280;2386;42.138;24.746;2022-12-11T03:43:33;97460.03;;;12.25;100.00
4745;BME280;2386;42.138;24.746;2022-12-11T03:46:00;97470.31;;;12.28;100.00
4745;BME280;2386;42.138;24.746;2022-12-11T03:48:28;97462.66;;;12.30;100.00
4745;BME280;2386;42.138;24.746;2022-12-11T03:50:56;97460.47;;;12.32;100.00
4745;BME280;2386;42.138;24.746;2022-12-11T03:53:24;97448.19;;;12.35;100.00
4745;BME280;2386;42.138;24.746;2022-12-11T03:55:51;97440.31;;;12.33;100.00
4745;BME280;2386;42.138;24.746;2022-12-11T03:58:17;97438.66;;;12.18;100.00
4745;BME280;2386;42.138;24.746;2022-12-11T04:00:42;97436.22;;;12.17;100.00
4745;BME280;2386;42.138;24.746;2022-12-11T04:03:08;97444.75;;;12.10;100.00
4745;BME280;2386;42.138;24.746;2022-12-11T04:05:50;97458.56;;;12.14;100.00
4745;BME280;2386;42.138;24.746;2022-12-11T04:08:17;97461.94;;;12.06;100.00
4745;BME280;2386;42.138;24.746;2022-12-11T04:10:45;97457.00;;;12.08;100.00
4745;BME280;2386;42.138;24.746;2022-12-11T04:13:10;97456.94;;;12.13;100.00
4745;BME280;2386;42.138;24.746;2022-12-11T04:15:37;97456.34;;;11.97;100.00
4745;BME280;2386;42.138;24.746;2022-12-11T04:18:03;97441.03;;;11.88;100.00
4745;BME280;2386;42.138;24.746;2022-12-11T04:20:47;97441.16;;;11.96;100.00
4745;BME280;2386;42.138;24.746;2022-12-11T04:23:31;97449.06;;;11.93;100.00
4745;BME280;2386;42.138;24.746;2022-12-11T04:26:35;97455.97;;;12.04;100.00
4745;BME280;2386;42.138;24.746;2022-12-11T04:29:00;97430.13;;;12.06;100.00
4745;BME280;2386;42.138;24.746;2022-12-11T04:31:26;97436.81;;;12.14;100.00
4745;BME280;2386;42.138;24.746;2022-12-11T04:33:52;97445.25;;;12.12;100.00
4745;BME280;2386;42.138;24.746;2022-12-11T04:36:17;97447.09;;;12.17;100.00
4745;BME280;2386;42.138;24.746;2022-12-11T04:38:43;97450.53;;;12.23;100.00
4745;BME280;2386;42.138;24.746;2022-12-11T04:41:11;97454.16;;;12.18;100.00
4745;BME280;2386;42.138;24.746;2022-12-11T04:43:37;97451.50;;;12.13;100.00
4745;BME280;2386;42.138;24.746;2022-12-11T04:46:08;97447.03;;;12.22;100.00
4745;BME280;2386;42.138;24.746;2022-12-11T04:48:35;97459.34;;;12.33;100.00
4745;BME280;2386;42.138;24.746;2022-12-11T04:51:01;97467.50;;;12.33;100.00
4745;BME280;2386;42.138;24.746;2022-12-11T04:53:26;97477.06;;;12.49;100.00
4745;BME280;2386;42.138;24.746;2022-12-11T04:55:52;97462.38;;;12.64;100.00
4745;BME280;2386;42.138;24.746;2022-12-11T04:58:18;97460.81;;;12.77;100.00
4745;BME280;2386;42.138;24.746;2022-12-11T05:00:44;97460.72;;;12.82;100.00
4745;BME280;2386;42.138;24.746;2022-12-11T05:03:09;97465.47;;;12.90;100.00
4745;BME280;2386;42.138;24.746;2022-12-11T05:05:35;97482.81;;;12.94;100.00
4745;BME280;2386;42.138;24.746;2022-12-11T05:08:00;97485.63;;;12.89;100.00
4745;BME280;2386;42.138;24.746;2022-12-11T05:10:26;97482.19;;;12.83;100.00
4745;BME280;2386;42.138;24.746;2022-12-11T05:12:51;97486.91;;;12.78;100.00
4745;BME280;2386;42.138;24.746;2022-12-11T05:15:16;97492.94;;;12.75;100.00
4745;BME280;2386;42.138;24.746;2022-12-11T05:17:42;97495.44;;;12.71;100.00
4745;BME280;2386;42.138;24.746;2022-12-11T05:20:08;97502.88;;;12.66;100.00
4745;BME280;2386;42.138;24.746;2022-12-11T05:22:34;97512.47;;;12.44;100.00
4745;BME280;2386;42.138;24.746;2022-12-11T05:24:59;97492.34;;;12.45;100.00
4745;BME280;2386;42.138;24.746;2022-12-11T05:27:24;97487.19;;;12.44;100.00
4745;BME280;2386;42.138;24.746;2022-12-11T05:29:50;97495.88;;;12.27;100.00
4745;BME280;2386;42.138;24.746;2022-12-11T05:32:15;97494.47;;;12.11;100.00
4745;BME280;2386;42.138;24.746;2022-12-11T05:34:40;97505.50;;;12.20;100.00
4745;BME280;2386;42.138;24.746;2022-12-11T05:37:06;97513.50;;;12.11;100.00
4745;BME280;2386;42.138;24.746;2022-12-11T05:39:31;97522.75;;;12.10;100.00
4745;BME280;2386;42.138;24.746;2022-12-11T05:41:57;97541.81;;;11.86;100.00
4745;BME280;2386;42.138;24.746;2022-12-11T05:44:22;97523.91;;;12.04;100.00
4745;BME280;2386;42.138;24.746;2022-12-11T05:46:48;97516.28;;;12.06;100.00
4745;BME280;2386;42.138;24.746;2022-12-11T05:49:14;97513.50;;;12.11;100.00
4745;BME280;2386;42.138;24.746;2022-12-11T05:51:39;97513.50;;;12.11;100.00
4745;BME280;2386;42.138;24.746;2022-12-11T05:54:05;97520.31;;;12.08;100.00
4745;BME280;2386;42.138;24.746;2022-12-11T05:56:32;97515.25;;;12.02;100.00
4745;BME280;2386;42.138;24.746;2022-12-11T05:58:59;97531.53;;;12.02;100.00
4745;BME280;2386;42.138;24.746;2022-12-11T06:01:26;97546.16;;;12.06;100.00
4745;BME280;2386;42.138;24.746;2022-12-11T06:03:53;97556.63;;;11.94;100.00
4745;BME280;2386;42.138;24.746;2022-12-11T06:06:19;97557.38;;;11.99;100.00
4745;BME280;2386;42.138;24.746;2022-12-11T06:08:45;97568.84;;;11.96;100.00
4745;BME280;2386;42.138;24.746;2022-12-11T06:11:13;97592.66;;;12.04;100.00
4745;BME280;2386;42.138;24.746;2022-12-11T06:13:39;97609.59;;;12.20;100.00
4745;BME280;2386;42.138;24.746;2022-12-11T06:16:06;97607.50;;;12.12;100.00
4745;BME280;2386;42.138;24.746;2022-12-11T06:18:40;97610.63;;;12.24;100.00
4745;BME280;2386;42.138;24.746;2022-12-11T06:21:27;97609.00;;;12.23;100.00
4745;BME280;2386;42.138;24.746;2022-12-11T06:23:54;97592.25;;;12.16;100.00
4745;BME280;2386;42.138;24.746;2022-12-11T06:26:20;97610.34;;;12.26;100.00
4745;BME280;2386;42.138;24.746;2022-12-11T06:28:46;97603.78;;;12.27;100.00
4745;BME280;2386;42.138;24.746;2022-12-11T06:31:12;97592.19;;;12.21;100.00
4745;BME280;2386;42.138;24.746;2022-12-11T06:33:38;97606.34;;;12.18;100.00
4745;BME280;2386;42.138;24.746;2022-12-11T06:36:06;97597.84;;;12.25;100.00
4745;BME280;2386;42.138;24.746;2022-12-11T06:38:32;97601.31;;;12.30;100.00
4745;BME280;2386;42.138;24.746;2022-12-11T06:40:59;97587.34;;;12.37;100.00
4745;BME280;2386;42.138;24.746;2022-12-11T06:43:26;97583.09;;;12.31;100.00
4745;BME280;2386;42.138;24.746;2022-12-11T06:45:51;97599.25;;;12.41;100.00
4745;BME280;2386;42.138;24.746;2022-12-11T06:48:18;97600.88;;;12.42;100.00
4745;BME280;2386;42.138;24.746;2022-12-11T06:50:44;97591.03;;;12.46;100.00
4745;BME280;2386;42.138;24.746;2022-12-11T06:53:11;97592.50;;;12.38;100.00
4745;BME280;2386;42.138;24.746;2022-12-11T06:55:37;97594.63;;;12.41;100.00
4745;BME280;2386;42.138;24.746;2022-12-11T06:58:04;97617.41;;;12.45;100.00
4745;BME280;2386;42.138;24.746;2022-12-11T07:00:29;97626.69;;;12.44;100.00
4745;BME280;2386;42.138;24.746;2022-12-11T07:02:55;97624.78;;;12.45;100.00
4745;BME280;2386;42.138;24.746;2022-12-11T07:05:20;97618.53;;;12.44;100.00
4745;BME280;2386;42.138;24.746;2022-12-11T07:07:45;97616.84;;;12.48;100.00
4745;BME280;2386;42.138;24.746;2022-12-11T07:10:11;97616.25;;;12.52;100.00
4745;BME280;2386;42.138;24.746;2022-12-11T07:12:36;97621.34;;;12.58;100.00
4745;BME280;2386;42.138;24.746;2022-12-11T07:15:03;97636.16;;;12.66;100.00
4745;BME280;2386;42.138;24.746;2022-12-11T07:17:28;97633.16;;;12.67;100.00
4745;BME280;2386;42.138;24.746;2022-12-11T07:19:54;97624.03;;;12.77;100.00
4745;BME280;2386;42.138;24.746;2022-12-11T07:22:19;97620.13;;;12.83;100.00
4745;BME280;2386;42.138;24.746;2022-12-11T07:24:45;97627.34;;;12.93;100.00
4745;BME280;2386;42.138;24.746;2022-12-11T07:27:24;97626.38;;;13.02;100.00
4745;BME280;2386;42.138;24.746;2022-12-11T07:29:50;97633.97;;;13.05;100.00
4745;BME280;2386;42.138;24.746;2022-12-11T07:32:15;97620.94;;;13.02;100.00
4745;BME280;2386;42.138;24.746;2022-12-11T07:34:41;97622.84;;;13.02;100.00
4745;BME280;2386;42.138;24.746;2022-12-11T07:37:06;97619.84;;;13.03;100.00
4745;BME280;2386;42.138;24.746;2022-12-11T07:39:32;97632.25;;;13.09;100.00
4745;BME280;2386;42.138;24.746;2022-12-11T07:41:57;97634.25;;;13.04;100.00
4745;BME280;2386;42.138;24.746;2022-12-11T07:44:22;97630.06;;;13.11;100.00
4745;BME280;2386;42.138;24.746;2022-12-11T07:46:48;97629.41;;;13.20;100.00
4745;BME280;2386;42.138;24.746;2022-12-11T07:49:13;97614.63;;;13.26;100.00
4745;BME280;2386;42.138;24.746;2022-12-11T07:51:38;97616.16;;;13.32;100.00
4745;BME280;2386;42.138;24.746;2022-12-11T07:54:10;97619.09;;;13.49;100.00
4745;BME280;2386;42.138;24.746;2022-12-11T07:56:39;97635.88;;;13.56;100.00
4745;BME280;2386;42.138;24.746;2022-12-11T07:59:05;97627.59;;;13.61;100.00
4745;BME280;2386;42.138;24.746;2022-12-11T08:01:32;97625.69;;;13.62;100.00
4745;BME280;2386;42.138;24.746;2022-12-11T08:04:00;97628.03;;;13.68;100.00
4745;BME280;2386;42.138;24.746;2022-12-11T08:06:29;97630.25;;;13.66;100.00
4745;BME280;2386;42.138;24.746;2022-12-11T08:08:55;97630.06;;;13.76;100.00
4745;BME280;2386;42.138;24.746;2022-12-11T08:11:22;97656.81;;;13.74;100.00
4745;BME280;2386;42.138;24.746;2022-12-11T08:13:48;97661.44;;;13.74;100.00
4745;BME280;2386;42.138;24.746;2022-12-11T08:16:15;97658.41;;;13.75;100.00
4745;BME280;2386;42.138;24.746;2022-12-11T08:18:41;97661.13;;;13.75;100.00
4745;BME280;2386;42.138;24.746;2022-12-11T08:23:38;97663.28;;;13.78;100.00
4745;BME280;2386;42.138;24.746;2022-12-11T08:26:08;97652.28;;;13.84;100.00
4745;BME280;2386;42.138;24.746;2022-12-11T08:28:34;97639.56;;;13.93;100.00
4745;BME280;2386;42.138;24.746;2022-12-11T08:31:03;97633.94;;;14.03;100.00
4745;BME280;2386;42.138;24.746;2022-12-11T08:33:28;97625.22;;;14.14;100.00
4745;BME280;2386;42.138;24.746;2022-12-11T08:35:54;97619.16;;;14.18;100.00
4745;BME280;2386;42.138;24.746;2022-12-11T08:38:19;97626.34;;;14.27;100.00
4745;BME280;2386;42.138;24.746;2022-12-11T08:40:45;97624.13;;;14.43;100.00
4745;BME280;2386;42.138;24.746;2022-12-11T08:43:10;97608.47;;;14.49;100.00
4745;BME280;2386;42.138;24.746;2022-12-11T08:45:36;97629.47;;;14.62;100.00
4745;BME280;2386;42.138;24.746;2022-12-11T08:48:03;97629.44;;;14.75;100.00
4745;BME280;2386;42.138;24.746;2022-12-11T08:50:29;97619.22;;;14.81;100.00
4745;BME280;2386;42.138;24.746;2022-12-11T08:52:54;97618.47;;;14.89;100.00
4745;BME280;2386;42.138;24.746;2022-12-11T08:55:20;97643.91;;;14.98;100.00
4745;BME280;2386;42.138;24.746;2022-12-11T08:57:46;97654.72;;;15.03;100.00
4745;BME280;2386;42.138;24.746;2022-12-11T09:00:12;97659.19;;;14.99;100.00
4745;BME280;2386;42.138;24.746;2022-12-11T09:02:38;97682.53;;;15.05;100.00
4745;BME280;2386;42.138;24.746;2022-12-11T09:05:04;97683.66;;;15.04;100.00
4745;BME280;2386;42.138;24.746;2022-12-11T09:07:34;97682.34;;;15.02;100.00
4745;BME280;2386;42.138;24.746;2022-12-11T09:09:59;97673.94;;;14.98;100.00
4745;BME280;2386;42.138;24.746;2022-12-11T09:12:26;97674.94;;;15.02;100.00
4745;BME280;2386;42.138;24.746;2022-12-11T09:14:52;97682.66;;;15.00;100.00
4745;BME280;2386;42.138;24.746;2022-12-11T09:17:17;97666.75;;;15.02;100.00
4745;BME280;2386;42.138;24.746;2022-12-11T09:19:43;97660.38;;;15.07;100.00
4745;BME280;2386;42.138;24.746;2022-12-11T09:22:08;97659.16;;;15.13;100.00
4745;BME280;2386;42.138;24.746;2022-12-11T09:24:36;97652.56;;;15.14;100.00
4745;BME280;2386;42.138;24.746;2022-12-11T09:27:04;97646.69;;;15.21;100.00
4745;BME280;2386;42.138;24.746;2022-12-11T09:29:30;97632.03;;;15.17;100.00
4745;BME280;2386;42.138;24.746;2022-12-11T09:31:55;97626.56;;;15.17;100.00
4745;BME280;2386;42.138;24.746;2022-12-11T09:34:21;97615.81;;;15.20;100.00
4745;BME280;2386;42.138;24.746;2022-12-11T09:36:46;97615.41;;;15.27;100.00
4745;BME280;2386;42.138;24.746;2022-12-11T09:39:13;97598.44;;;15.38;100.00
4745;BME280;2386;42.138;24.746;2022-12-11T09:41:58;97596.75;;;15.51;100.00
4745;BME280;2386;42.138;24.746;2022-12-11T09:44:31;97601.66;;;15.63;100.00
4745;BME280;2386;42.138;24.746;2022-12-11T09:46:59;97594.09;;;15.60;100.00
4745;BME280;2386;42.138;24.746;2022-12-11T09:49:45;97594.44;;;15.67;100.00
4745;BME280;2386;42.138;24.746;2022-12-11T09:52:17;97583.06;;;15.73;100.00
4745;BME280;2386;42.138;24.746;2022-12-11T09:54:59;97574.53;;;15.75;100.00
4745;BME280;2386;42.138;24.746;2022-12-11T09:57:34;97574.13;;;15.90;100.00
4745;BME280;2386;42.138;24.746;2022-12-11T10:05:26;97606.91;;;16.21;100.00
4745;BME280;2386;42.138;24.746;2022-12-11T10:10:51;97596.00;;;16.38;100.00
4745;BME280;2386;42.138;24.746;2022-12-11T10:13:37;97588.41;;;16.35;100.00
4745;BME280;2386;42.138;24.746;2022-12-11T10:18:40;97565.41;;;16.36;100.00
4745;BME280;2386;42.138;24.746;2022-12-11T10:21:06;97573.13;;;16.43;100.00
4745;BME280;2386;42.138;24.746;2022-12-11T10:23:39;97567.00;;;16.37;100.00
4745;BME280;2386;42.138;24.746;2022-12-11T10:26:13;97561.06;;;16.35;100.00
4745;BME280;2386;42.138;24.746;2022-12-11T10:28:40;97569.13;;;16.32;100.00
4745;BME280;2386;42.138;24.746;2022-12-11T10:31:17;97552.06;;;16.26;100.00
4745;BME280;2386;42.138;24.746;2022-12-11T10:34:02;97536.75;;;16.25;100.00
4745;BME280;2386;42.138;24.746;2022-12-11T10:36:36;97523.56;;;16.27;100.00
4745;BME280;2386;42.138;24.746;2022-12-11T10:39:03;97505.22;;;16.28;100.00
4745;BME280;2386;42.138;24.746;2022-12-11T10:41:40;97512.78;;;16.39;100.00
4745;BME280;2386;42.138;24.746;2022-12-11T10:44:21;97498.94;;;16.44;100.00
4745;BME280;2386;42.138;24.746;2022-12-11T10:46:59;97498.78;;;16.50;100.00
4745;BME280;2386;42.138;24.746;2022-12-11T10:49:29;97495.25;;;16.58;100.00
4745;BME280;2386;42.138;24.746;2022-12-11T10:51:56;97507.97;;;16.62;100.00
4745;BME280;2386;42.138;24.746;2022-12-11T10:54:36;97490.25;;;16.60;100.00
4745;BME280;2386;42.138;24.746;2022-12-11T10:57:04;97503.16;;;16.68;100.00
4745;BME280;2386;42.138;24.746;2022-12-11T11:01:59;97497.81;;;16.63;100.00
4745;BME280;2386;42.138;24.746;2022-12-11T11:04:36;97488.16;;;16.57;100.00
4745;BME280;2386;42.138;24.746;2022-12-11T11:07:02;97494.59;;;16.61;100.00
4745;BME280;2386;42.138;24.746;2022-12-11T11:09:35;97494.75;;;16.56;100.00
4745;BME280;2386;42.138;24.746;2022-12-11T11:12:01;97507.31;;;16.57;100.00
4745;BME280;2386;42.138;24.746;2022-12-11T11:14:27;97501.84;;;16.57;100.00
4745;BME280;2386;42.138;24.746;2022-12-11T11:16:56;97504.25;;;16.50;100.00
4745;BME280;2386;42.138;24.746;2022-12-11T11:19:35;97505.88;;;16.51;100.00
4745;BME280;2386;42.138;24.746;2022-12-11T11:22:04;97502.00;;;16.52;100.00
4745;BME280;2386;42.138;24.746;2022-12-11T11:24:38;97500.06;;;16.52;100.00
4745;BME280;2386;42.138;24.746;2022-12-11T11:29:52;97506.50;;;16.56;100.00
4745;BME280;2386;42.138;24.746;2022-12-11T11:32:24;97496.84;;;16.59;100.00
4745;BME280;2386;42.138;24.746;2022-12-11T11:34:51;97503.97;;;16.68;100.00
4745;BME280;2386;42.138;24.746;2022-12-11T11:37:29;97499.28;;;16.69;100.00
4745;BME280;2386;42.138;24.746;2022-12-11T11:40:01;97496.41;;;16.74;100.00
4745;BME280;2386;42.138;24.746;2022-12-11T11:45:13;97499.63;;;16.76;100.00
4745;BME280;2386;42.138;24.746;2022-12-11T11:47:47;97500.91;;;16.70;100.00
4745;BME280;2386;42.138;24.746;2022-12-11T11:50:18;97487.19;;;16.61;100.00
4745;BME280;2386;42.138;24.746;2022-12-11T11:55:53;97493.47;;;16.62;100.00
4745;BME280;2386;42.138;24.746;2022-12-11T11:58:34;97493.63;;;16.57;100.00
4745;BME280;2386;42.138;24.746;2022-12-11T12:01:01;97482.19;;;16.55;100.00
4745;BME280;2386;42.138;24.746;2022-12-11T12:03:27;97482.03;;;16.51;100.00
4745;BME280;2386;42.138;24.746;2022-12-11T12:14:37;97481.38;;;16.46;100.00
4745;BME280;2386;42.138;24.746;2022-12-11T12:17:15;97469.16;;;16.43;100.00
4745;BME280;2386;42.138;24.746;2022-12-11T12:25:44;97446.13;;;16.53;100.00
4745;BME280;2386;42.138;24.746;2022-12-11T12:44:23;97456.78;;;16.80;100.00
4745;BME280;2386;42.138;24.746;2022-12-11T12:49:42;97454.50;;;16.82;100.00
4745;BME280;2386;42.138;24.746;2022-12-11T12:54:52;97452.25;;;16.75;100.00
4745;BME280;2386;42.138;24.746;2022-12-11T12:57:41;97452.59;;;16.74;100.00
4745;BME280;2386;42.138;24.746;2022-12-11T13:00:08;97458.72;;;16.71;100.00
4745;BME280;2386;42.138;24.746;2022-12-11T13:02:46;97466.44;;;16.78;100.00
4745;BME280;2386;42.138;24.746;2022-12-11T13:05:25;97459.50;;;16.80;100.00
4745;BME280;2386;42.138;24.746;2022-12-11T13:07:55;97462.72;;;16.82;100.00
4745;BME280;2386;42.138;24.746;2022-12-11T13:10:25;97457.72;;;16.84;100.00
4745;BME280;2386;42.138;24.746;2022-12-11T13:12:51;97445.50;;;16.73;100.00
4745;BME280;2386;42.138;24.746;2022-12-11T13:17:52;97456.78;;;16.80;100.00
4745;BME280;2386;42.138;24.746;2022-12-11T13:20:20;97446.13;;;16.79;100.00
4745;BME280;2386;42.138;24.746;2022-12-11T13:27:47;97463.53;;;16.74;100.00
4745;BME280;2386;42.138;24.746;2022-12-11T13:32:51;97447.91;;;16.74;100.00
4745;BME280;2386;42.138;24.746;2022-12-11T13:35:19;97446.59;;;16.63;100.00
4745;BME280;2386;42.138;24.746;2022-12-11T13:37:48;97455.16;;;16.62;100.00
4745;BME280;2386;42.138;24.746;2022-12-11T13:40:24;97459.97;;;16.56;100.00
4745;BME280;2386;42.138;24.746;2022-12-11T13:43:21;97463.19;;;16.50;100.00
4745;BME280;2386;42.138;24.746;2022-12-11T13:45:50;97465.13;;;16.40;100.00
4745;BME280;2386;42.138;24.746;2022-12-11T13:48:26;97474.97;;;16.33;100.00
4745;BME280;2386;42.138;24.746;2022-12-11T13:50:53;97484.13;;;16.28;100.00
4745;BME280;2386;42.138;24.746;2022-12-11T13:53:20;97469.47;;;16.16;100.00
4745;BME280;2386;42.138;24.746;2022-12-11T13:55:55;97472.53;;;16.14;100.00
4745;BME280;2386;42.138;24.746;2022-12-11T13:58:22;97482.66;;;16.14;100.00
4745;BME280;2386;42.138;24.746;2022-12-11T14:01:10;97466.72;;;16.07;100.00
4745;BME280;2386;42.138;24.746;2022-12-11T14:03:45;97481.84;;;16.04;100.00
4745;BME280;2386;42.138;24.746;2022-12-11T14:06:13;97490.50;;;15.98;100.00
4745;BME280;2386;42.138;24.746;2022-12-11T14:08:41;97497.91;;;15.97;100.00
4745;BME280;2386;42.138;24.746;2022-12-11T14:11:20;97510.28;;;15.95;100.00
4745;BME280;2386;42.138;24.746;2022-12-11T14:13:46;97501.13;;;15.91;100.00
4745;BME280;2386;42.138;24.746;2022-12-11T14:16:20;97510.59;;;15.93;100.00
4745;BME280;2386;42.138;24.746;2022-12-11T14:18:48;97516.88;;;15.94;100.00
4745;BME280;2386;42.138;24.746;2022-12-11T14:21:22;97516.41;;;15.92;100.00
4745;BME280;2386;42.138;24.746;2022-12-11T14:23:54;97504.97;;;15.90;100.00
4745;BME280;2386;42.138;24.746;2022-12-11T14:26:27;97515.75;;;15.95;100.00
4745;BME280;2386;42.138;24.746;2022-12-11T14:28:53;97522.84;;;15.96;100.00
4745;BME280;2386;42.138;24.746;2022-12-11T14:31:34;97512.84;;;15.91;100.00
4745;BME280;2386;42.138;24.746;2022-12-11T14:34:14;97501.59;;;15.93;100.00
4745;BME280;2386;42.138;24.746;2022-12-11T14:36:42;97526.41;;;16.05;100.00
4745;BME280;2386;42.138;24.746;2022-12-11T14:39:30;97527.22;;;16.05;100.00